Time;durP1;ratioP1;P1;durP2;ratioP2;P2;SDS_P1;SDS_P2;PMS_P1;PMS_P2;Temp;Humidity;BMP_temperature;BMP_pressure;BME280_temperature;BME280_humidity;BME280_pressure;Samples;Min_cycle;Max_cycle;Signal;HPM_P1;HPM_P2
2022/01/06 00:01:24;;;;;;;;;;;;;;;;;;5034986;28;20271;-32
2022/01/06 00:03:54;;;;;;;;;;;;;;;;;;5034929;28;20249;-31
2022/01/06 00:06:22;;;;;;;;;;;;;;;;;;5035249;28;19913;-29
2022/01/06 00:08:48;;;;;;;;;;;;;;;;;;5034888;28;19917;-30
2022/01/06 00:11:15;;;;;;;;;;;;;;;;;;5035488;28;19916;-28
2022/01/06 00:13:55;;;;;;;;;;;;;;;;;;5034796;28;19920;-31
2022/01/06 00:24:13;;;;;;;;;;;;;;;;;;5034774;28;19928;-29
2022/01/06 00:26:39;;;;;;;;;;;;;;;;;;5034804;28;20003;-32
2022/01/06 00:29:07;;;;;;;;;;;;;;;;;;5034662;28;19923;-29
2022/01/06 00:31:33;;;;;;;;;;;;;;;;;;5034949;28;20399;-34
2022/01/06 00:34:00;;;;;;;;;;;;;;;;;;5034877;28;19913;-29
2022/01/06 00:36:26;;;;;;;;;;;;;;;;;;5034843;28;19913;-32
2022/01/06 00:38:52;;;;;;;;;;;;;;;;;;5034645;28;20431;-30
2022/01/06 00:41:18;;;;;;;;;;;;;;;;;;5034498;28;19993;-30
2022/01/06 00:43:44;;;;;;;;;;;;;;;;;;5034724;28;20332;-29
2022/01/06 00:46:11;;;;;;;;;;;;;;;;;;5034573;28;19913;-29
2022/01/06 00:48:39;;;;;;;;;;;;;;;;;;5035037;28;20252;-30
2022/01/06 00:51:06;;;;;;;;;;;;;;;;;;5017094;28;19917;-32
2022/01/06 00:53:33;;;;;;;;;;;;;;;;;;5034411;28;19995;-31
2022/01/06 00:56:00;;;;;;;;;;;;;;;;;;5034495;28;20233;-32
2022/01/06 00:58:27;;;;;;;;;;;;;;;;;;5034493;28;19909;-32
2022/01/06 01:00:52;;;;;;;;;;;;;;;;;;5016915;28;19928;-29
2022/01/06 01:03:19;;;;;;;;;;;;;;;;;;5034407;28;19909;-26
2022/01/06 01:05:46;;;;;;;;;;;;;;;;;;5034273;28;19917;-29
2022/01/06 01:08:14;;;;;;;;;;;;;;;;;;5034923;28;19917;-29
2022/01/06 01:10:40;;;;;;;;;;;;;;;;;;5034276;28;19913;-35
2022/01/06 01:13:12;;;;;;;;;;;;;;;;;;5034529;28;20241;-30
2022/01/06 01:15:45;;;;;;;;;;;;;;;;;;5034293;28;19912;-31
2022/01/06 01:18:13;;;;;;;;;;;;;;;;;;5034243;28;19909;-31
2022/01/06 01:20:39;;;;;;;;;;;;;;;;;;5034166;28;19914;-29
2022/01/06 01:23:07;;;;;;;;;;;;;;;;;;5034332;28;19986;-34
2022/01/06 01:25:33;;;;;;;;;;;;;;;;;;5034400;28;20259;-33
2022/01/06 01:28:00;;;;;;;;;;;;;;;;;;5034244;28;20383;-30
2022/01/06 01:30:31;;;;;;;;;;;;;;;;;;5034389;28;20344;-29
2022/01/06 01:32:59;;;;;;;;;;;;;;;;;;5037705;28;19909;-29
2022/01/06 01:35:30;;;;;;;;;;;;;;;;;;5037659;28;19975;-32
2022/01/06 01:37:57;;;;;;;;;;;;;;;;;;5020064;28;19916;-31
2022/01/06 01:40:23;;;;;;;;;;;;;;;;;;5037626;28;19942;-29
2022/01/06 01:42:49;;;;;;;;;;;;;;;;;;5037638;28;19913;-32
2022/01/06 01:45:17;;;;;;;;;;;;;;;;;;5037610;28;20259;-27
2022/01/06 01:47:45;;;;;;;;;;;;;;;;;;5019939;28;19927;-30
2022/01/06 01:50:13;;;;;;;;;;;;;;;;;;5037434;28;19920;-26
2022/01/06 01:52:39;;;;;;;;;;;;;;;;;;5037355;28;19967;-30
2022/01/06 01:55:06;;;;;;;;;;;;;;;;;;5020166;28;19924;-33
2022/01/06 01:57:33;;;;;;;;;;;;;;;;;;5037600;28;20299;-28
2022/01/06 02:00:00;;;;;;;;;;;;;;;;;;5019708;28;20004;-33
2022/01/06 02:02:28;;;;;;;;;;;;;;;;;;5037063;28;19913;-33
2022/01/06 02:04:55;;;;;;;;;;;;;;;;;;5036858;28;19992;-33
2022/01/06 02:07:21;;;;;;;;;;;;;;;;;;5037110;28;19949;-33
2022/01/06 02:09:47;;;;;;;;;;;;;;;;;;5019550;28;19917;-33
2022/01/06 02:12:13;;;;;;;;;;;;;;;;;;5036987;28;20336;-28
2022/01/06 02:14:39;;;;;;;;;;;;;;;;;;5037171;28;20259;-31
2022/01/06 02:17:06;;;;;;;;;;;;;;;;;;5037262;28;19909;-29
2022/01/06 02:19:32;;;;;;;;;;;;;;;;;;5037195;28;19913;-27
2022/01/06 02:21:59;;;;;;;;;;;;;;;;;;5036699;28;19967;-31
2022/01/06 02:24:25;;;;;;;;;;;;;;;;;;5037129;28;19909;-30
2022/01/06 02:26:52;;;;;;;;;;;;;;;;;;5036721;28;19992;-30
2022/01/06 02:29:18;;;;;;;;;;;;;;;;;;5036754;28;19967;-31
2022/01/06 02:31:46;;;;;;;;;;;;;;;;;;5036963;28;20008;-32
2022/01/06 02:34:13;;;;;;;;;;;;;;;;;;5036577;28;19913;-32
2022/01/06 02:36:39;;;;;;;;;;;;;;;;;;5036831;28;19909;-31
2022/01/06 02:39:06;;;;;;;;;;;;;;;;;;5036872;28;20248;-29
2022/01/06 02:41:32;;;;;;;;;;;;;;;;;;5036160;28;19928;-28
2022/01/06 02:44:00;;;;;;;;;;;;;;;;;;5036327;28;19909;-29
2022/01/06 02:46:26;;;;;;;;;;;;;;;;;;5018864;28;19972;-29
2022/01/06 02:48:52;;;;;;;;;;;;;;;;;;5036559;28;19909;-30
2022/01/06 02:51:18;;;;;;;;;;;;;;;;;;5036242;28;20011;-32
2022/01/06 02:53:46;;;;;;;;;;;;;;;;;;5036211;28;19909;-33
2022/01/06 02:56:12;;;;;;;;;;;;;;;;;;5036213;28;19975;-29
2022/01/06 02:58:38;;;;;;;;;;;;;;;;;;5036205;28;19923;-33
2022/01/06 03:01:06;;;;;;;;;;;;;;;;;;5036040;28;19913;-30
2022/01/06 03:03:32;;;;;;;;;;;;;;;;;;5018318;28;19923;-32
2022/01/06 03:05:59;;;;;;;;;;;;;;;;;;5036328;28;20337;-29
2022/01/06 03:08:28;;;;;;;;;;;;;;;;;;5036261;28;19913;-28
2022/01/06 03:10:56;;;;;;;;;;;;;;;;;;5035857;28;20284;-27
2022/01/06 03:13:22;;;;;;;;;;;;;;;;;;5035932;28;19909;-26
2022/01/06 03:15:50;;;;;;;;;;;;;;;;;;5036040;28;20241;-31
2022/01/06 03:18:16;;;;;;;;;;;;;;;;;;5035784;28;20272;-27
2022/01/06 03:20:42;;;;;;;;;;;;;;;;;;5035655;28;19981;-31
2022/01/06 03:23:11;;;;;;;;;;;;;;;;;;5035676;28;19928;-33
2022/01/06 03:25:37;;;;;;;;;;;;;;;;;;5035811;28;20371;-30
2022/01/06 03:28:03;;;;;;;;;;;;;;;;;;5035842;28;20340;-28
2022/01/06 03:30:30;;;;;;;;;;;;;;;;;;5035549;28;19967;-30
2022/01/06 03:32:56;;;;;;;;;;;;;;;;;;5035470;28;19913;-30
2022/01/06 03:35:24;;;;;;;;;;;;;;;;;;5035436;28;19956;-31
2022/01/06 03:37:52;;;;;;;;;;;;;;;;;;5035361;28;20353;-29
2022/01/06 03:40:18;;;;;;;;;;;;;;;;;;5017886;28;20379;-26
2022/01/06 03:42:46;;;;;;;;;;;;;;;;;;5017754;28;19916;-32
2022/01/06 03:45:12;;;;;;;;;;;;;;;;;;5035569;28;19913;-30
2022/01/06 03:47:38;;;;;;;;;;;;;;;;;;5035254;28;19952;-29
2022/01/06 03:50:04;;;;;;;;;;;;;;;;;;5035260;28;19909;-29
2022/01/06 03:52:30;;;;;;;;;;;;;;;;;;5035333;28;20011;-31
2022/01/06 03:54:57;;;;;;;;;;;;;;;;;;5034808;28;19913;-32
2022/01/06 03:57:23;;;;;;;;;;;;;;;;;;5035167;28;19919;-31
2022/01/06 03:59:50;;;;;;;;;;;;;;;;;;5017582;28;19964;-33
2022/01/06 04:02:18;;;;;;;;;;;;;;;;;;5035099;28;20347;-27
2022/01/06 04:04:44;;;;;;;;;;;;;;;;;;5034795;28;20309;-31
2022/01/06 04:07:11;;;;;;;;;;;;;;;;;;5017538;28;19909;-33
2022/01/06 04:09:38;;;;;;;;;;;;;;;;;;5017448;28;19913;-35
2022/01/06 04:12:04;;;;;;;;;;;;;;;;;;5034878;28;19920;-31
2022/01/06 04:14:31;;;;;;;;;;;;;;;;;;5034795;28;19924;-30
2022/01/06 04:16:59;;;;;;;;;;;;;;;;;;5035122;28;19996;-30
2022/01/06 04:19:26;;;;;;;;;;;;;;;;;;5017403;28;19940;-31
2022/01/06 04:21:53;;;;;;;;;;;;;;;;;;5034987;28;19929;-30
2022/01/06 04:24:19;;;;;;;;;;;;;;;;;;5034799;28;19913;-28
2022/01/06 04:26:45;;;;;;;;;;;;;;;;;;5034760;28;20000;-31
2022/01/06 04:29:13;;;;;;;;;;;;;;;;;;5035038;28;19924;-32
2022/01/06 04:31:39;;;;;;;;;;;;;;;;;;5017211;28;19960;-31
2022/01/06 04:34:06;;;;;;;;;;;;;;;;;;5017224;28;19909;-30
2022/01/06 04:36:32;;;;;;;;;;;;;;;;;;5034891;28;19979;-28
2022/01/06 04:38:58;;;;;;;;;;;;;;;;;;5034860;28;19975;-29
2022/01/06 04:41:27;;;;;;;;;;;;;;;;;;5034781;28;19913;-29
2022/01/06 04:43:53;;;;;;;;;;;;;;;;;;5034542;28;19917;-29
2022/01/06 04:46:20;;;;;;;;;;;;;;;;;;5034548;28;19972;-32
2022/01/06 04:48:47;;;;;;;;;;;;;;;;;;5034347;28;19924;-32
2022/01/06 04:51:14;;;;;;;;;;;;;;;;;;5034368;28;19913;-28
2022/01/06 04:53:40;;;;;;;;;;;;;;;;;;5034272;28;19913;-32
2022/01/06 04:56:06;;;;;;;;;;;;;;;;;;5034601;28;19920;-32
2022/01/06 04:58:32;;;;;;;;;;;;;;;;;;5016788;28;19925;-27
2022/01/06 05:03:41;;;;;;;;;;;;;;;;;;5200387;23;19925;-21
2022/01/06 05:06:07;;;;;;;;;;;;;;;;;;5015719;28;20021;-21
2022/01/06 05:08:33;;;;;;;;;;;;;;;;;;5018432;28;19996;-21
2022/01/06 05:10:59;;;;;;;;;;;;;;;;;;5018214;28;19928;-22
2022/01/06 05:13:26;;;;;;;;;;;;;;;;;;5017960;28;20295;-22
2022/01/06 05:15:52;;;;;;;;;;;;;;;;;;5017847;28;19978;-23
2022/01/06 05:18:18;;;;;;;;;;;;;;;;;;5017956;28;19952;-23
2022/01/06 05:20:44;;;;;;;;;;;;;;;;;;5018309;28;20312;-20
2022/01/06 05:26:01;;;;;;;;;;;;;;;;;;5017991;28;19940;-21
2022/01/06 05:28:27;;;;;;;;;;;;;;;;;;5017872;28;20320;-21
2022/01/06 05:30:53;;;;;;;;;;;;;;;;;;5017989;28;19940;-22
2022/01/06 05:33:19;;;;;;;;;;;;;;;;;;5017416;28;19917;-20
2022/01/06 05:35:45;;;;;;;;;;;;;;;;;;5017772;28;19978;-21
2022/01/06 05:38:11;;;;;;;;;;;;;;;;;;5017572;28;20376;-22
2022/01/06 05:40:37;;;;;;;;;;;;;;;;;;5016455;28;20348;-21
2022/01/06 05:43:03;;;;;;;;;;;;;;;;;;5017306;28;20055;-22
2022/01/06 05:45:29;;;;;;;;;;;;;;;;;;5017900;28;19921;-21
2022/01/06 05:47:55;;;;;;;;;;;;;;;;;;5017427;28;19914;-21
2022/01/06 05:50:21;;;;;;;;;;;;;;;;;;5017221;28;19921;-21
2022/01/06 05:52:47;;;;;;;;;;;;;;;;;;5017316;28;20304;-21
2022/01/06 05:55:13;;;;;;;;;;;;;;;;;;5017262;28;19918;-21
2022/01/06 05:57:39;;;;;;;;;;;;;;;;;;5017380;28;19913;-21
2022/01/06 06:00:05;;;;;;;;;;;;;;;;;;5017576;28;19909;-21
2022/01/06 06:02:35;;;;;;;;;;;;;;;;;;5016833;28;20336;-21
2022/01/06 06:05:04;;;;;;;;;;;;;;;;;;5017208;28;19910;-22
2022/01/06 06:07:30;;;;;;;;;;;;;;;;;;5017156;28;19917;-22
2022/01/06 06:09:56;;;;;;;;;;;;;;;;;;5017096;28;19997;-23
2022/01/06 06:12:25;;;;;;;;;;;;;;;;;;5016783;28;19971;-22
2022/01/06 06:14:51;;;;;;;;;;;;;;;;;;5015421;28;20448;-21
2022/01/06 06:17:20;;;;;;;;;;;;;;;;;;5016248;28;19913;-21
2022/01/06 06:19:47;;;;;;;;;;;;;;;;;;5016405;28;19957;-21
2022/01/06 06:22:15;;;;;;;;;;;;;;;;;;5016116;28;20058;-21
2022/01/06 06:24:41;;;;;;;;;;;;;;;;;;5016447;28;20248;-21
2022/01/06 06:27:08;;;;;;;;;;;;;;;;;;5015609;28;20350;-21
2022/01/06 06:29:37;;;;;;;;;;;;;;;;;;5016480;28;20027;-21
2022/01/06 06:32:03;;;;;;;;;;;;;;;;;;5016146;28;19925;-20
2022/01/06 06:34:30;;;;;;;;;;;;;;;;;;5016396;28;19917;-21
2022/01/06 06:36:56;;;;;;;;;;;;;;;;;;5016901;28;20005;-21
2022/01/06 06:39:22;;;;;;;;;;;;;;;;;;5016538;28;19945;-21
2022/01/06 06:41:49;;;;;;;;;;;;;;;;;;5016325;28;19913;-22
2022/01/06 06:44:16;;;;;;;;;;;;;;;;;;5016897;28;20248;-21
2022/01/06 06:46:42;;;;;;;;;;;;;;;;;;5016682;28;20239;-21
2022/01/06 06:49:09;;;;;;;;;;;;;;;;;;5017056;28;20000;-23
2022/01/06 06:51:35;;;;;;;;;;;;;;;;;;5015930;28;19987;-21
2022/01/06 06:54:03;;;;;;;;;;;;;;;;;;5016411;28;19910;-20
2022/01/06 06:56:29;;;;;;;;;;;;;;;;;;5016123;28;19921;-21
2022/01/06 06:58:55;;;;;;;;;;;;;;;;;;5014963;28;20225;-20
2022/01/06 07:01:21;;;;;;;;;;;;;;;;;;5015898;28;20387;-21
2022/01/06 07:03:47;;;;;;;;;;;;;;;;;;5014758;28;20360;-21
2022/01/06 07:06:16;;;;;;;;;;;;;;;;;;5015912;28;20497;-21
2022/01/06 07:08:42;;;;;;;;;;;;;;;;;;5016097;28;19997;-20
2022/01/06 07:11:09;;;;;;;;;;;;;;;;;;5015422;28;19909;-22
2022/01/06 07:13:37;;;;;;;;;;;;;;;;;;5015112;28;19921;-21
2022/01/06 07:16:05;;;;;;;;;;;;;;;;;;5015090;28;19924;-20
2022/01/06 07:18:31;;;;;;;;;;;;;;;;;;5015247;28;20375;-22
2022/01/06 07:20:59;;;;;;;;;;;;;;;;;;5013678;28;19913;-20
2022/01/06 07:23:26;;;;;;;;;;;;;;;;;;5014537;28;20237;-21
2022/01/06 07:25:54;;;;;;;;;;;;;;;;;;5013721;28;21417;-20
2022/01/06 07:28:20;;;;;;;;;;;;;;;;;;5014051;28;20174;-22
2022/01/06 07:30:49;;;;;;;;;;;;;;;;;;5014212;28;19984;-21
2022/01/06 07:33:15;;;;;;;;;;;;;;;;;;5014671;28;19913;-21
2022/01/06 07:35:42;;;;;;;;;;;;;;;;;;5014738;28;19920;-22
2022/01/06 07:38:10;;;;;;;;;;;;;;;;;;5015336;28;19909;-21
2022/01/06 07:40:37;;;;;;;;;;;;;;;;;;5015150;28;19973;-22
2022/01/06 07:43:03;;;;;;;;;;;;;;;;;;5014024;28;20349;-22
2022/01/06 07:45:29;;;;;;;;;;;;;;;;;;5015353;28;20261;-20
2022/01/06 07:48:01;;;;;;;;;;;;;;;;;;5015477;28;19913;-21
2022/01/06 07:50:28;;;;;;;;;;;;;;;;;;5015356;28;20371;-22
2022/01/06 07:52:55;;;;;;;;;;;;;;;;;;5014715;28;19917;-21
2022/01/06 07:55:21;;;;;;;;;;;;;;;;;;5015193;28;20205;-22
2022/01/06 07:57:47;;;;;;;;;;;;;;;;;;5014661;28;20008;-22
2022/01/06 08:00:15;;;;;;;;;;;;;;;;;;5015328;28;19954;-22
2022/01/06 08:02:44;;;;;;;;;;;;;;;;;;5014511;28;19921;-21
2022/01/06 08:05:12;;;;;;;;;;;;;;;;;;5015202;28;19914;-22
2022/01/06 08:07:39;;;;;;;;;;;;;;;;;;5014669;28;19910;-21
2022/01/06 08:10:05;;;;;;;;;;;;;;;;;;5014790;28;20023;-21
2022/01/06 08:12:31;;;;;;;;;;;;;;;;;;5014774;28;20399;-21
2022/01/06 08:14:57;;;;;;;;;;;;;;;;;;5014683;28;19920;-20
2022/01/06 08:17:23;;;;;;;;;;;;;;;;;;5014574;28;20289;-21
2022/01/06 08:19:52;;;;;;;;;;;;;;;;;;5014658;28;19905;-21
2022/01/06 08:22:18;;;;;;;;;;;;;;;;;;5014418;28;19976;-22
2022/01/06 08:24:44;;;;;;;;;;;;;;;;;;5013633;28;20399;-20
2022/01/06 08:27:11;;;;;;;;;;;;;;;;;;5014555;28;20344;-20
2022/01/06 08:29:38;;;;;;;;;;;;;;;;;;5014865;28;19914;-21
2022/01/06 08:32:05;;;;;;;;;;;;;;;;;;5014365;28;19931;-20
2022/01/06 08:34:32;;;;;;;;;;;;;;;;;;5015194;28;20288;-21
2022/01/06 08:36:59;;;;;;;;;;;;;;;;;;5013714;28;19913;-21
2022/01/06 08:39:25;;;;;;;;;;;;;;;;;;5014522;28;20357;-20
2022/01/06 08:41:51;;;;;;;;;;;;;;;;;;5018340;28;19940;-21
2022/01/06 08:44:17;;;;;;;;;;;;;;;;;;5018510;28;20388;-20
2022/01/06 08:46:45;;;;;;;;;;;;;;;;;;5018169;28;19910;-22
2022/01/06 08:49:12;;;;;;;;;;;;;;;;;;5018163;28;20000;-21
2022/01/06 08:51:38;;;;;;;;;;;;;;;;;;5018768;28;19963;-21
2022/01/06 08:54:04;;;;;;;;;;;;;;;;;;5018141;28;19924;-21
2022/01/06 08:56:30;;;;;;;;;;;;;;;;;;5018057;28;19909;-21
2022/01/06 08:58:58;;;;;;;;;;;;;;;;;;5016692;28;19909;-21
2022/01/06 09:01:24;;;;;;;;;;;;;;;;;;5017877;28;20004;-22
2022/01/06 09:03:50;;;;;;;;;;;;;;;;;;5018229;28;19928;-20
2022/01/06 09:06:17;;;;;;;;;;;;;;;;;;5018080;28;19913;-21
2022/01/06 09:08:44;;;;;;;;;;;;;;;;;;5018760;28;19920;-21
2022/01/06 09:11:10;;;;;;;;;;;;;;;;;;5017906;28;19940;-21
2022/01/06 09:13:38;;;;;;;;;;;;;;;;;;5017728;28;20407;-21
2022/01/06 09:16:08;;;;;;;;;;;;;;;;;;5016682;28;20403;-21
2022/01/06 09:18:34;;;;;;;;;;;;;;;;;;5017732;28;19924;-21
2022/01/06 09:21:02;;;;;;;;;;;;;;;;;;5017752;28;19913;-21
2022/01/06 09:23:28;;;;;;;;;;;;;;;;;;5017750;28;19914;-22
2022/01/06 09:25:54;;;;;;;;;;;;;;;;;;5017489;28;19918;-22
2022/01/06 09:28:20;;;;;;;;;;;;;;;;;;5017697;28;19909;-21
2022/01/06 09:30:46;;;;;;;;;;;;;;;;;;5017467;28;19914;-20
2022/01/06 09:33:16;;;;;;;;;;;;;;;;;;5017376;28;20268;-21
2022/01/06 09:35:45;;;;;;;;;;;;;;;;;;5018030;28;19929;-20
2022/01/06 09:38:12;;;;;;;;;;;;;;;;;;5017579;28;19918;-21
2022/01/06 09:40:38;;;;;;;;;;;;;;;;;;5017694;28;19910;-19
2022/01/06 09:43:06;;;;;;;;;;;;;;;;;;5018063;28;19965;-22
2022/01/06 09:45:35;;;;;;;;;;;;;;;;;;5017422;28;19971;-21
2022/01/06 09:48:02;;;;;;;;;;;;;;;;;;5017367;28;20348;-21
2022/01/06 09:50:28;;;;;;;;;;;;;;;;;;5017212;28;19914;-21
2022/01/06 09:52:56;;;;;;;;;;;;;;;;;;5016352;28;20008;-21
2022/01/06 09:55:23;;;;;;;;;;;;;;;;;;5015801;28;20000;-22
2022/01/06 09:57:49;;;;;;;;;;;;;;;;;;5016459;28;19909;-22
2022/01/06 10:00:17;;;;;;;;;;;;;;;;;;5016502;28;20005;-22
2022/01/06 10:02:43;;;;;;;;;;;;;;;;;;5015992;28;19975;-22
2022/01/06 10:05:11;;;;;;;;;;;;;;;;;;5016870;28;19910;-21
2022/01/06 10:07:37;;;;;;;;;;;;;;;;;;5016419;28;19913;-19
2022/01/06 10:10:04;;;;;;;;;;;;;;;;;;5016525;28;19913;-20
2022/01/06 10:12:31;;;;;;;;;;;;;;;;;;5016254;28;19910;-21
2022/01/06 10:14:59;;;;;;;;;;;;;;;;;;5016605;28;19910;-22
2022/01/06 10:17:26;;;;;;;;;;;;;;;;;;5016060;28;19970;-17
2022/01/06 10:19:53;;;;;;;;;;;;;;;;;;5016161;28;19914;-21
2022/01/06 10:22:21;;;;;;;;;;;;;;;;;;5014724;28;19917;-22
2022/01/06 10:24:47;;;;;;;;;;;;;;;;;;5016291;28;19940;-21
2022/01/06 10:27:14;;;;;;;;;;;;;;;;;;5015889;28;20084;-21
2022/01/06 10:29:40;;;;;;;;;;;;;;;;;;5015862;28;19913;-21
2022/01/06 10:32:06;;;;;;;;;;;;;;;;;;5014803;28;19913;-22
2022/01/06 10:34:32;;;;;;;;;;;;;;;;;;5015935;28;19913;-22
2022/01/06 10:36:58;;;;;;;;;;;;;;;;;;5016626;28;20337;-21
2022/01/06 10:39:27;;;;;;;;;;;;;;;;;;5015239;28;19936;-21
2022/01/06 10:41:53;;;;;;;;;;;;;;;;;;5016831;28;19935;-21
2022/01/06 10:44:19;;;;;;;;;;;;;;;;;;5016360;28;19940;-21
2022/01/06 10:46:47;;;;;;;;;;;;;;;;;;5016811;28;19921;-22
2022/01/06 10:49:13;;;;;;;;;;;;;;;;;;5016149;28;19945;-21
2022/01/06 10:51:40;;;;;;;;;;;;;;;;;;5016009;28;19909;-21
2022/01/06 10:54:06;;;;;;;;;;;;;;;;;;5016121;28;19909;-22
2022/01/06 10:56:32;;;;;;;;;;;;;;;;;;5016128;28;19909;-21
2022/01/06 10:59:00;;;;;;;;;;;;;;;;;;5016377;28;19921;-21
2022/01/06 11:01:26;;;;;;;;;;;;;;;;;;5015872;28;19925;-21
2022/01/06 11:03:52;;;;;;;;;;;;;;;;;;5015836;28;20021;-21
2022/01/06 11:06:20;;;;;;;;;;;;;;;;;;5016386;28;19940;-21
2022/01/06 11:08:46;;;;;;;;;;;;;;;;;;5014567;28;19914;-22
2022/01/06 11:11:27;;;;;;;;;;;;;;;;;;5015520;28;20291;-20
2022/01/06 11:14:01;;;;;;;;;;;;;;;;;;5015779;28;19917;-21
2022/01/06 11:16:27;;;;;;;;;;;;;;;;;;5015792;28;20252;-21
2022/01/06 11:18:54;;;;;;;;;;;;;;;;;;5016351;28;19913;-21
2022/01/06 11:21:22;;;;;;;;;;;;;;;;;;5016009;28;20213;-22
2022/01/06 11:23:48;;;;;;;;;;;;;;;;;;5015485;28;19917;-20
2022/01/06 11:26:15;;;;;;;;;;;;;;;;;;5015606;28;19917;-22
2022/01/06 11:28:42;;;;;;;;;;;;;;;;;;5015511;28;19920;-21
2022/01/06 11:31:08;;;;;;;;;;;;;;;;;;5015890;28;19975;-21
2022/01/06 11:33:34;;;;;;;;;;;;;;;;;;5014640;28;19914;-20
2022/01/06 11:36:00;;;;;;;;;;;;;;;;;;5015575;28;19913;-20
2022/01/06 11:38:29;;;;;;;;;;;;;;;;;;5016263;28;20056;-22
2022/01/06 11:40:57;;;;;;;;;;;;;;;;;;5015469;28;20017;-21
2022/01/06 11:43:23;;;;;;;;;;;;;;;;;;5014141;28;19919;-21
2022/01/06 11:45:51;;;;;;;;;;;;;;;;;;5015109;28;19913;-20
2022/01/06 11:48:17;;;;;;;;;;;;;;;;;;5015151;28;19964;-21
2022/01/06 11:50:43;;;;;;;;;;;;;;;;;;5014939;28;19913;-21
2022/01/06 11:53:11;;;;;;;;;;;;;;;;;;5015214;28;19914;-22
2022/01/06 11:55:37;;;;;;;;;;;;;;;;;;5015678;28;19917;-21
2022/01/06 11:58:03;;;;;;;;;;;;;;;;;;5015155;28;19916;-22
2022/01/06 12:00:30;;;;;;;;;;;;;;;;;;5015458;28;19925;-20
2022/01/06 12:02:56;;;;;;;;;;;;;;;;;;5014824;28;20300;-21
2022/01/06 12:05:23;;;;;;;;;;;;;;;;;;5014770;28;19920;-22
2022/01/06 12:07:50;;;;;;;;;;;;;;;;;;5014741;28;19920;-21
2022/01/06 12:10:16;;;;;;;;;;;;;;;;;;5014628;28;20309;-21
2022/01/06 12:12:42;;;;;;;;;;;;;;;;;;5014364;28;19951;-22
2022/01/06 12:15:08;;;;;;;;;;;;;;;;;;5014507;28;19953;-21
2022/01/06 12:17:36;;;;;;;;;;;;;;;;;;5014483;28;19967;-21
2022/01/06 12:20:03;;;;;;;;;;;;;;;;;;5015000;28;19920;-22
2022/01/06 12:22:30;;;;;;;;;;;;;;;;;;5014261;28;19953;-22
2022/01/06 12:24:57;;;;;;;;;;;;;;;;;;5014769;28;19960;-19
2022/01/06 12:27:23;;;;;;;;;;;;;;;;;;5014222;28;19921;-22
2022/01/06 12:29:49;;;;;;;;;;;;;;;;;;5014748;28;19968;-22
2022/01/06 12:32:15;;;;;;;;;;;;;;;;;;5013224;28;19910;-21
2022/01/06 12:34:43;;;;;;;;;;;;;;;;;;5014296;28;20003;-22
2022/01/06 12:37:10;;;;;;;;;;;;;;;;;;5014462;28;19913;-21
2022/01/06 12:39:36;;;;;;;;;;;;;;;;;;5014605;28;19913;-22
2022/01/06 12:42:02;;;;;;;;;;;;;;;;;;5013604;28;19968;-21
2022/01/06 12:44:31;;;;;;;;;;;;;;;;;;5014687;28;19997;-22
2022/01/06 12:46:59;;;;;;;;;;;;;;;;;;5014718;28;19920;-22
2022/01/06 12:49:28;;;;;;;;;;;;;;;;;;5014801;28;20287;-21
2022/01/06 12:51:54;;;;;;;;;;;;;;;;;;5014368;28;19968;-21
2022/01/06 12:54:22;;;;;;;;;;;;;;;;;;5014463;28;19914;-21
2022/01/06 12:56:49;;;;;;;;;;;;;;;;;;5014475;28;19917;-22
2022/01/06 12:59:15;;;;;;;;;;;;;;;;;;5014611;28;19913;-21
2022/01/06 13:01:44;;;;;;;;;;;;;;;;;;5014985;28;19917;-21
2022/01/06 13:04:10;;;;;;;;;;;;;;;;;;5015058;28;19922;-21
2022/01/06 13:06:36;;;;;;;;;;;;;;;;;;5014489;28;19914;-20
2022/01/06 13:09:02;;;;;;;;;;;;;;;;;;5014416;28;20244;-21
2022/01/06 13:11:28;;;;;;;;;;;;;;;;;;5014436;28;19994;-21
2022/01/06 13:13:56;;;;;;;;;;;;;;;;;;5014422;28;20226;-21
2022/01/06 13:16:22;;;;;;;;;;;;;;;;;;5014270;28;19956;-22
2022/01/06 13:18:48;;;;;;;;;;;;;;;;;;5014184;28;19914;-21
2022/01/06 13:21:19;;;;;;;;;;;;;;;;;;5014548;28;20259;-21
2022/01/06 13:23:45;;;;;;;;;;;;;;;;;;5014088;28;19942;-21
2022/01/06 13:26:11;;;;;;;;;;;;;;;;;;5014687;28;19913;-21
2022/01/06 13:28:40;;;;;;;;;;;;;;;;;;5017139;28;19945;-21
2022/01/06 13:31:06;;;;;;;;;;;;;;;;;;5017631;28;19967;-21
2022/01/06 13:33:32;;;;;;;;;;;;;;;;;;5017666;28;19909;-21
2022/01/06 13:35:58;;;;;;;;;;;;;;;;;;5017601;28;19914;-21
2022/01/06 13:38:25;;;;;;;;;;;;;;;;;;5017484;28;19913;-20
2022/01/06 13:40:52;;;;;;;;;;;;;;;;;;5017441;28;20000;-21
2022/01/06 13:43:18;;;;;;;;;;;;;;;;;;5016136;28;19913;-20
2022/01/06 13:45:47;;;;;;;;;;;;;;;;;;5017275;28;19918;-22
2022/01/06 13:48:35;;;;;;;;;;;;;;;;;;5017539;28;19948;-21
2022/01/06 13:51:05;;;;;;;;;;;;;;;;;;5018044;28;19913;-21
2022/01/06 13:53:31;;;;;;;;;;;;;;;;;;5017371;28;19997;-21
2022/01/06 13:55:57;;;;;;;;;;;;;;;;;;5017257;28;20384;-21
2022/01/06 13:58:25;;;;;;;;;;;;;;;;;;5017497;28;20387;-21
2022/01/06 14:00:51;;;;;;;;;;;;;;;;;;5015990;28;19913;-21
2022/01/06 14:03:17;;;;;;;;;;;;;;;;;;5016725;28;19957;-21
2022/01/06 14:05:44;;;;;;;;;;;;;;;;;;5017289;28;19920;-21
2022/01/06 14:08:10;;;;;;;;;;;;;;;;;;5017837;28;19920;-21
2022/01/06 14:10:40;;;;;;;;;;;;;;;;;;5017215;28;19910;-20
2022/01/06 14:13:08;;;;;;;;;;;;;;;;;;5017090;28;20374;-21
2022/01/06 14:15:37;;;;;;;;;;;;;;;;;;5016842;28;19913;-21
2022/01/06 14:18:03;;;;;;;;;;;;;;;;;;5017448;28;20241;-21
2022/01/06 14:20:30;;;;;;;;;;;;;;;;;;5016890;28;20032;-20
2022/01/06 14:22:58;;;;;;;;;;;;;;;;;;5016872;28;19929;-20
2022/01/06 14:25:24;;;;;;;;;;;;;;;;;;5016763;28;19917;-21
2022/01/06 14:27:51;;;;;;;;;;;;;;;;;;5017291;28;19910;-20
2022/01/06 14:30:20;;;;;;;;;;;;;;;;;;5016563;28;19925;-21
2022/01/06 14:32:49;;;;;;;;;;;;;;;;;;5016608;28;19916;-22
2022/01/06 14:35:15;;;;;;;;;;;;;;;;;;5015422;28;20263;-22
2022/01/06 14:37:42;;;;;;;;;;;;;;;;;;5016177;28;19921;-23
2022/01/06 14:40:08;;;;;;;;;;;;;;;;;;5016939;28;19992;-22
2022/01/06 14:42:35;;;;;;;;;;;;;;;;;;5016479;28;19921;-22
2022/01/06 14:45:01;;;;;;;;;;;;;;;;;;5015378;28;20088;-23
2022/01/06 14:47:27;;;;;;;;;;;;;;;;;;5016587;28;20240;-23
2022/01/06 14:49:55;;;;;;;;;;;;;;;;;;5016341;28;19913;-22
2022/01/06 14:52:21;;;;;;;;;;;;;;;;;;5016495;28;19918;-23
2022/01/06 14:54:47;;;;;;;;;;;;;;;;;;5016074;28;19913;-23
2022/01/06 14:57:13;;;;;;;;;;;;;;;;;;5015653;28;20024;-22
2022/01/06 14:59:39;;;;;;;;;;;;;;;;;;5015629;28;19921;-23
2022/01/06 15:02:07;;;;;;;;;;;;;;;;;;5015868;28;20000;-23
2022/01/06 15:04:35;;;;;;;;;;;;;;;;;;5016048;28;19964;-22
2022/01/06 15:07:01;;;;;;;;;;;;;;;;;;5015873;28;20017;-23
2022/01/06 15:09:29;;;;;;;;;;;;;;;;;;5015743;28;19972;-23
2022/01/06 15:11:58;;;;;;;;;;;;;;;;;;5016102;28;19951;-23
2022/01/06 15:14:24;;;;;;;;;;;;;;;;;;5015674;28;20048;-22
2022/01/06 15:16:51;;;;;;;;;;;;;;;;;;5015681;28;19909;-22
2022/01/06 15:19:19;;;;;;;;;;;;;;;;;;5015622;28;19997;-23
2022/01/06 15:21:45;;;;;;;;;;;;;;;;;;5015634;28;19925;-23
2022/01/06 15:24:12;;;;;;;;;;;;;;;;;;5015945;28;19913;-22
2022/01/06 15:26:39;;;;;;;;;;;;;;;;;;5014550;28;20258;-22
2022/01/06 15:29:05;;;;;;;;;;;;;;;;;;5015548;28;19918;-22
2022/01/06 15:31:33;;;;;;;;;;;;;;;;;;5016040;28;19906;-23
2022/01/06 15:33:59;;;;;;;;;;;;;;;;;;5015422;28;19914;-23
2022/01/06 15:36:25;;;;;;;;;;;;;;;;;;5015514;28;19905;-22
2022/01/06 15:38:56;;;;;;;;;;;;;;;;;;5015624;28;20366;-22
2022/01/06 15:41:23;;;;;;;;;;;;;;;;;;5015308;28;20004;-22
2022/01/06 15:43:49;;;;;;;;;;;;;;;;;;5015133;28;19913;-22
2022/01/06 15:46:17;;;;;;;;;;;;;;;;;;5015050;28;19913;-23
2022/01/06 15:48:43;;;;;;;;;;;;;;;;;;5014721;28;19914;-22
2022/01/06 15:51:11;;;;;;;;;;;;;;;;;;5014179;28;20341;-21
2022/01/06 15:53:38;;;;;;;;;;;;;;;;;;5014296;28;19971;-22
2022/01/06 15:56:05;;;;;;;;;;;;;;;;;;5014090;28;19971;-22
2022/01/06 15:58:31;;;;;;;;;;;;;;;;;;5013973;28;19963;-22
2022/01/06 16:01:17;;;;;;;;;;;;;;;;;;5013987;28;20091;-23
2022/01/06 16:06:27;;;;;;;;;;;;;;;;;;5013843;28;20349;-23
2022/01/06 16:08:53;;;;;;;;;;;;;;;;;;5013763;28;19933;-22
2022/01/06 16:11:19;;;;;;;;;;;;;;;;;;5013776;28;19921;-23
2022/01/06 16:13:45;;;;;;;;;;;;;;;;;;5012605;28;20056;-22
2022/01/06 16:16:11;;;;;;;;;;;;;;;;;;5013671;28;20366;-22
2022/01/06 16:18:38;;;;;;;;;;;;;;;;;;5014000;28;19909;-23
2022/01/06 16:21:04;;;;;;;;;;;;;;;;;;5013350;28;19991;-24
2022/01/06 16:23:30;;;;;;;;;;;;;;;;;;5014369;28;19929;-22
2022/01/06 16:25:56;;;;;;;;;;;;;;;;;;5014611;28;20288;-22
2022/01/06 16:28:22;;;;;;;;;;;;;;;;;;5014788;28;19924;-23
2022/01/06 16:30:48;;;;;;;;;;;;;;;;;;5014391;28;19909;-22
2022/01/06 16:33:14;;;;;;;;;;;;;;;;;;5014451;28;19928;-24
2022/01/06 16:35:40;;;;;;;;;;;;;;;;;;5014862;28;19993;-23
2022/01/06 16:38:06;;;;;;;;;;;;;;;;;;5013670;28;19956;-22
2022/01/06 16:40:32;;;;;;;;;;;;;;;;;;5014881;28;19936;-22
2022/01/06 16:42:58;;;;;;;;;;;;;;;;;;5014934;28;20324;-23
2022/01/06 16:45:24;;;;;;;;;;;;;;;;;;5014524;28;19917;-22
2022/01/06 16:47:50;;;;;;;;;;;;;;;;;;5013335;28;19910;-24
2022/01/06 16:50:16;;;;;;;;;;;;;;;;;;5014316;28;19943;-23
2022/01/06 16:52:42;;;;;;;;;;;;;;;;;;5014095;28;19917;-23
2022/01/06 16:55:08;;;;;;;;;;;;;;;;;;5014255;28;20079;-22
2022/01/06 16:57:34;;;;;;;;;;;;;;;;;;5014244;28;19918;-22
2022/01/06 17:00:00;;;;;;;;;;;;;;;;;;5014659;28;20309;-23